Airfield :
LOGIN :

Register | Disclaimer

   EN    FR    IT 

 










Legend :    VFR   Marginal VFR   IFR   Intensive IFR   Very Intensive IFR
Visi :
Ceiling :
>= 8 km
>= 3000ft
5 to 8 km
1000 to 3000 ft
1500m to 5 km
500 to 1000 ft
800 to 1500m
200 to 500 ft
< 800m
< 200 ft
Symbols :   Thunderstorms  Fog  Heavy snow  Heavy precipitations  Wind > 20 kt
SIGMETs :     Misc.  Thunderstorms  Icing  Turbulence  Mountain Waves  Volcanic Ashes






- Airport Elevation : -13 ft
- IATA code : LEY


EHLE - Lelystad

CURRENT METAR :
  • 280725Z AUTO 19012KT 9999 NSC 09/08 Q1003 NOSIG

EXPIRED METARs :
  • 280655Z AUTO 19012KT 160V220 9999 NSC 09/08 Q1003 NOSIG
  • 280625Z AUTO 19010KT 9999 NSC 09/07 Q1003 NOSIG
  • 280555Z AUTO 19011KT 9999 NSC 09/08 Q1003 NOSIG
  • 280525Z AUTO 19013KT 160V220 9999 FEW015CB 10/08 Q1002 REDZ
  • 280455Z AUTO 21013KT 9999 -RA FEW015CB BKN042 BKN048 10/09 Q1003 RERA REDZ

TAF TAF EHLE
Valid from the 28 at 06:00 until the 29 at 12:00 UTC


280521Z 2806/2912 21010KT 9999 SCT020
PROB40
TEMPO 2806/2812 6000 SHRA SCT020CB
BECMG 2808/2811 21017KT
TEMPO 2812/2903 23020G30KT 6000 SHRA SCT020CB BKN025
PROB30
TEMPO 2817/2903 4000 TSRA
BECMG 2821/2824 24011KT



MET'MAP, your aeronautical weather chart ! - Copyright ORBIFLY December 2007 - Disclaimer

ORBIFLY MET'MAP TEAM :

Programming & Development : Alexandra Zaïnal
Concept & original design : Baudouin d'Aumeries
Assistance for programming : Marc-Olivier Méhu
Technical & hardware support : Manuel Goepfert

Contact : metmap@orbifly.com




SOURCES & CREDITS :

   NOAA